FIN1069 MMMX-MMGL
Flight info
| Callsign | FIN1069 |
|---|---|
| Flight time | 1h 10m |
| Altitude | 32000 |
| Route | SEBO3A/05L SEBON DCT ANEVU UJ12 LONKU DCT OVALI DCT CI29L |
| Aircraft | A321/M-SDE3FGHIRWY/LB1 |
Departure
| Time | 2026-05-08 03:40 |
|---|---|
| Airport | Mexico City Benito Juárez International Airport (MMMX) |
Arrival
| Time | 2026-05-08 04:50 |
|---|---|
| Airport | Guadalajara International Airport (MMGL) |
| Time | Latitude | Longitude | Altitude | Speed | Heading |
|---|---|---|---|---|---|
| 2026-05-08 02:57 | 19.43173 | -99.08884 | 7304 ft | 0 kts | 303° |
| 2026-05-08 03:23 | 19.43168 | -99.08877 | 7303 ft | 3 kts | 303° |
| 2026-05-08 03:23 | 19.43158 | -99.08860 | 7304 ft | 3 kts | 289° |
| 2026-05-08 03:24 | 19.43154 | -99.08839 | 7303 ft | 3 kts | 258° |
| 2026-05-08 03:24 | 19.43161 | -99.08820 | 7303 ft | 3 kts | 227° |
| 2026-05-08 03:24 | 19.43165 | -99.08815 | 7304 ft | 0 kts | 218° |
| 2026-05-08 03:29 | 19.43162 | -99.08818 | 7304 ft | 3 kts | 216° |
| 2026-05-08 03:29 | 19.43126 | -99.08845 | 7303 ft | 9 kts | 215° |
| 2026-05-08 03:29 | 19.43058 | -99.08891 | 7303 ft | 14 kts | 209° |
| 2026-05-08 03:29 | 19.42969 | -99.08941 | 7304 ft | 12 kts | 211° |
| 2026-05-08 03:30 | 19.42866 | -99.09040 | 7303 ft | 6 kts | 208° |
| 2026-05-08 03:30 | 19.42860 | -99.09044 | 7303 ft | 0 kts | 208° |
| 2026-05-08 03:37 | 19.42853 | -99.09048 | 7303 ft | 4 kts | 208° |
| 2026-05-08 03:38 | 19.42810 | -99.09072 | 7304 ft | 10 kts | 207° |
| 2026-05-08 03:38 | 19.42767 | -99.09044 | 7304 ft | 12 kts | 85° |
| 2026-05-08 03:38 | 19.42779 | -99.09005 | 7304 ft | 0 kts | 61° |
| 2026-05-08 03:38 | 19.42882 | -99.08823 | 7305 ft | 63 kts | 58° |
| 2026-05-08 03:39 | 19.43217 | -99.08235 | 7305 ft | 119 kts | 60° |
| 2026-05-08 03:39 | 19.43713 | -99.07358 | 7305 ft | 158 kts | 59° |
| 2026-05-08 03:39 | 19.44335 | -99.06256 | 7307 ft | 189 kts | 59° |
| 2026-05-08 03:39 | 19.44990 | -99.05055 | 7890 ft | 177 kts | 58° |
| 2026-05-08 03:40 | 19.45510 | -99.03942 | 8772 ft | 164 kts | 63° |
| 2026-05-08 03:40 | 19.45962 | -99.02804 | 9035 ft | 172 kts | 63° |
| 2026-05-08 03:40 | 19.46574 | -99.01665 | 9145 ft | 184 kts | 57° |
| 2026-05-08 03:40 | 19.47308 | -99.00482 | 9242 ft | 200 kts | 57° |
| 2026-05-08 03:41 | 19.48101 | -98.99210 | 9341 ft | 214 kts | 57° |
| 2026-05-08 03:41 | 19.48925 | -98.97857 | 9427 ft | 228 kts | 59° |
| 2026-05-08 03:41 | 19.49541 | -98.96277 | 9498 ft | 242 kts | 87° |
| 2026-05-08 03:41 | 19.49196 | -98.94515 | 9593 ft | 255 kts | 124° |
| 2026-05-08 03:42 | 19.47859 | -98.93278 | 9868 ft | 264 kts | 160° |
| 2026-05-08 03:42 | 19.46041 | -98.93105 | 10285 ft | 268 kts | 194° |
| 2026-05-08 03:42 | 19.44428 | -98.94075 | 10719 ft | 272 kts | 225° |
| 2026-05-08 03:42 | 19.43233 | -98.95638 | 11222 ft | 275 kts | 234° |
| 2026-05-08 03:43 | 19.42206 | -98.97352 | 11772 ft | 276 kts | 238° |
| 2026-05-08 03:43 | 19.41228 | -98.99105 | 12298 ft | 277 kts | 238° |
| 2026-05-08 03:43 | 19.40239 | -99.00862 | 12831 ft | 278 kts | 238° |
| 2026-05-08 03:43 | 19.39222 | -99.02607 | 13357 ft | 279 kts | 236° |
| 2026-05-08 03:44 | 19.38175 | -99.04343 | 13883 ft | 280 kts | 236° |
| 2026-05-08 03:44 | 19.37199 | -99.06143 | 14361 ft | 283 kts | 250° |
| 2026-05-08 03:44 | 19.36747 | -99.08230 | 14538 ft | 299 kts | 258° |
| 2026-05-08 03:44 | 19.36411 | -99.10451 | 14797 ft | 309 kts | 260° |
| 2026-05-08 03:45 | 19.36094 | -99.12725 | 15197 ft | 314 kts | 260° |
| 2026-05-08 03:45 | 19.35782 | -99.14994 | 15627 ft | 317 kts | 260° |
| 2026-05-08 03:45 | 19.35460 | -99.17310 | 16057 ft | 320 kts | 260° |
| 2026-05-08 03:45 | 19.35129 | -99.19647 | 16495 ft | 322 kts | 260° |
| 2026-05-08 03:46 | 19.34789 | -99.22001 | 16935 ft | 325 kts | 260° |
| 2026-05-08 03:46 | 19.34441 | -99.24374 | 17371 ft | 328 kts | 260° |
| 2026-05-08 03:46 | 19.34089 | -99.26769 | 17804 ft | 330 kts | 260° |
| 2026-05-08 03:46 | 19.33849 | -99.28399 | 18090 ft | 332 kts | 260° |
| 2026-05-08 03:47 | 19.33374 | -99.31606 | 18664 ft | 335 kts | 260° |
| 2026-05-08 03:47 | 19.33130 | -99.33256 | 18941 ft | 336 kts | 260° |
| 2026-05-08 03:47 | 19.32771 | -99.35682 | 19340 ft | 339 kts | 260° |
| 2026-05-08 03:47 | 19.32504 | -99.38198 | 19745 ft | 342 kts | 268° |
| 2026-05-08 03:48 | 19.32716 | -99.40693 | 20043 ft | 351 kts | 280° |
| 2026-05-08 03:48 | 19.33386 | -99.43219 | 20186 ft | 363 kts | 285° |
| 2026-05-08 03:48 | 19.34132 | -99.45818 | 20331 ft | 374 kts | 285° |
| 2026-05-08 03:48 | 19.34898 | -99.48499 | 20460 ft | 386 kts | 285° |
| 2026-05-08 03:49 | 19.35683 | -99.51258 | 20580 ft | 397 kts | 285° |
| 2026-05-08 03:49 | 19.36484 | -99.54089 | 20766 ft | 405 kts | 285° |
| 2026-05-08 03:49 | 19.37296 | -99.56966 | 21101 ft | 409 kts | 284° |
| 2026-05-08 03:49 | 19.37940 | -99.59893 | 21358 ft | 409 kts | 276° |
| 2026-05-08 03:50 | 19.38080 | -99.62897 | 21595 ft | 408 kts | 264° |
| 2026-05-08 03:50 | 19.37883 | -99.65897 | 22005 ft | 409 kts | 263° |
| 2026-05-08 03:50 | 19.37691 | -99.68914 | 22373 ft | 411 kts | 264° |
| 2026-05-08 03:50 | 19.37506 | -99.71943 | 22722 ft | 413 kts | 264° |
| 2026-05-08 03:51 | 19.37321 | -99.74985 | 23060 ft | 415 kts | 263° |
| 2026-05-08 03:51 | 19.37132 | -99.78049 | 23256 ft | 417 kts | 263° |
| 2026-05-08 03:51 | 19.36944 | -99.81114 | 23247 ft | 417 kts | 263° |
| 2026-05-08 03:51 | 19.36758 | -99.84180 | 23361 ft | 419 kts | 263° |
| 2026-05-08 03:52 | 19.36567 | -99.87262 | 23706 ft | 420 kts | 263° |
| 2026-05-08 03:52 | 19.36375 | -99.90348 | 23971 ft | 422 kts | 263° |
| 2026-05-08 03:52 | 19.36178 | -99.93458 | 24219 ft | 424 kts | 263° |
| 2026-05-08 03:52 | 19.35978 | -99.96576 | 24488 ft | 425 kts | 263° |
| 2026-05-08 03:53 | 19.35776 | -99.99706 | 24773 ft | 427 kts | 263° |
| 2026-05-08 03:53 | 19.35574 | -100.02854 | 25054 ft | 429 kts | 263° |
| 2026-05-08 03:53 | 19.35434 | -100.06011 | 25333 ft | 432 kts | 269° |
| 2026-05-08 03:53 | 19.35861 | -100.09183 | 25591 ft | 439 kts | 282° |
| 2026-05-08 03:54 | 19.36979 | -100.12210 | 25842 ft | 446 kts | 296° |
| 2026-05-08 03:54 | 19.38762 | -100.14916 | 26101 ft | 452 kts | 310° |
| 2026-05-08 03:54 | 19.41087 | -100.17111 | 26360 ft | 458 kts | 323° |
| 2026-05-08 03:54 | 19.43820 | -100.18880 | 26617 ft | 461 kts | 327° |
| 2026-05-08 03:55 | 19.46592 | -100.20607 | 26891 ft | 463 kts | 327° |
| 2026-05-08 03:55 | 19.49374 | -100.22341 | 27165 ft | 464 kts | 327° |
| 2026-05-08 03:55 | 19.52168 | -100.24081 | 27440 ft | 466 kts | 327° |
| 2026-05-08 03:55 | 19.54917 | -100.25909 | 27709 ft | 465 kts | 321° |
| 2026-05-08 03:56 | 19.57350 | -100.28154 | 27964 ft | 463 kts | 310° |
| 2026-05-08 03:56 | 19.59377 | -100.30799 | 28216 ft | 461 kts | 301° |
| 2026-05-08 03:56 | 19.60939 | -100.33743 | 28466 ft | 458 kts | 291° |
| 2026-05-08 03:56 | 19.62054 | -100.36902 | 28708 ft | 457 kts | 285° |
| 2026-05-08 03:57 | 19.63077 | -100.40098 | 28946 ft | 458 kts | 286° |
| 2026-05-08 03:57 | 19.64108 | -100.43299 | 29188 ft | 459 kts | 286° |
| 2026-05-08 03:57 | 19.65141 | -100.46499 | 29445 ft | 460 kts | 286° |
| 2026-05-08 03:57 | 19.66183 | -100.49722 | 29705 ft | 461 kts | 286° |
| 2026-05-08 03:58 | 19.67224 | -100.52946 | 29947 ft | 462 kts | 286° |
| 2026-05-08 03:58 | 19.68266 | -100.56183 | 30172 ft | 464 kts | 286° |
| 2026-05-08 03:58 | 19.69306 | -100.59426 | 30367 ft | 465 kts | 286° |
| 2026-05-08 03:58 | 19.70331 | -100.62635 | 30575 ft | 465 kts | 286° |
| 2026-05-08 03:59 | 19.71390 | -100.65868 | 30879 ft | 464 kts | 287° |
| 2026-05-08 03:59 | 19.72482 | -100.69088 | 31200 ft | 462 kts | 287° |
| 2026-05-08 03:59 | 19.73592 | -100.72288 | 31544 ft | 461 kts | 287° |
| 2026-05-08 03:59 | 19.74706 | -100.75475 | 31872 ft | 459 kts | 287° |
| 2026-05-08 04:00 | 19.75816 | -100.78649 | 32047 ft | 458 kts | 287° |
| 2026-05-08 04:00 | 19.76903 | -100.81775 | 32112 ft | 447 kts | 287° |
| 2026-05-08 04:00 | 19.77964 | -100.84856 | 32119 ft | 442 kts | 287° |
| 2026-05-08 04:01 | 19.80054 | -100.90977 | 32165 ft | 439 kts | 287° |
| 2026-05-08 04:01 | 19.82126 | -100.97080 | 32208 ft | 439 kts | 287° |
| 2026-05-08 04:02 | 19.84207 | -101.03180 | 32195 ft | 439 kts | 287° |
| 2026-05-08 04:02 | 19.86187 | -101.09304 | 32229 ft | 438 kts | 285° |
| 2026-05-08 04:03 | 19.88035 | -101.15474 | 32198 ft | 438 kts | 284° |
| 2026-05-08 04:03 | 19.90797 | -101.24729 | 32119 ft | 438 kts | 284° |
| 2026-05-08 04:04 | 19.92666 | -101.30845 | 31878 ft | 438 kts | 285° |
| 2026-05-08 04:04 | 19.93610 | -101.33924 | 32035 ft | 438 kts | 284° |
| 2026-05-08 04:04 | 19.94551 | -101.37000 | 32008 ft | 438 kts | 284° |
| 2026-05-08 04:05 | 19.96430 | -101.43153 | 31991 ft | 438 kts | 284° |
| 2026-05-08 04:05 | 19.98306 | -101.49311 | 31975 ft | 438 kts | 284° |
| 2026-05-08 04:06 | 20.00170 | -101.55473 | 31978 ft | 438 kts | 284° |
| 2026-05-08 04:06 | 20.02034 | -101.61638 | 31974 ft | 438 kts | 284° |
| 2026-05-08 04:07 | 20.03897 | -101.67801 | 31963 ft | 437 kts | 284° |
| 2026-05-08 04:07 | 20.05753 | -101.73962 | 31961 ft | 437 kts | 284° |
| 2026-05-08 04:08 | 20.07600 | -101.80077 | 31963 ft | 437 kts | 284° |
| 2026-05-08 04:08 | 20.09453 | -101.86234 | 31956 ft | 437 kts | 284° |
| 2026-05-08 04:09 | 20.11307 | -101.92404 | 31961 ft | 437 kts | 284° |
| 2026-05-08 04:09 | 20.13156 | -101.98552 | 31948 ft | 436 kts | 284° |
| 2026-05-08 04:10 | 20.14999 | -102.04707 | 31948 ft | 436 kts | 284° |
| 2026-05-08 04:10 | 20.16839 | -102.10856 | 31953 ft | 436 kts | 284° |
| 2026-05-08 04:11 | 20.18676 | -102.17000 | 31946 ft | 435 kts | 284° |
| 2026-05-08 04:11 | 20.20508 | -102.23139 | 31937 ft | 435 kts | 284° |
| 2026-05-08 04:12 | 20.22328 | -102.29226 | 31932 ft | 435 kts | 284° |
| 2026-05-08 04:12 | 20.24158 | -102.35363 | 31939 ft | 434 kts | 284° |
| 2026-05-08 04:13 | 20.25072 | -102.38447 | 31766 ft | 440 kts | 284° |
| 2026-05-08 04:13 | 20.25992 | -102.41569 | 31408 ft | 443 kts | 284° |
| 2026-05-08 04:13 | 20.26917 | -102.44698 | 31076 ft | 443 kts | 284° |
| 2026-05-08 04:13 | 20.27847 | -102.47831 | 30757 ft | 442 kts | 284° |
| 2026-05-08 04:14 | 20.28776 | -102.50949 | 30432 ft | 441 kts | 284° |
| 2026-05-08 04:14 | 20.29700 | -102.54063 | 30106 ft | 439 kts | 284° |
| 2026-05-08 04:14 | 20.30618 | -102.57159 | 29761 ft | 438 kts | 284° |
| 2026-05-08 04:14 | 20.31532 | -102.60242 | 29387 ft | 436 kts | 284° |
| 2026-05-08 04:15 | 20.32446 | -102.63328 | 29021 ft | 435 kts | 284° |
| 2026-05-08 04:15 | 20.33356 | -102.66397 | 28654 ft | 433 kts | 284° |
| 2026-05-08 04:15 | 20.34259 | -102.69451 | 28296 ft | 431 kts | 284° |
| 2026-05-08 04:15 | 20.35157 | -102.72494 | 27941 ft | 430 kts | 284° |
| 2026-05-08 04:16 | 20.36052 | -102.75529 | 27595 ft | 428 kts | 284° |
| 2026-05-08 04:16 | 20.36930 | -102.78508 | 27256 ft | 427 kts | 284° |
| 2026-05-08 04:16 | 20.37809 | -102.81527 | 26911 ft | 425 kts | 283° |
| 2026-05-08 04:16 | 20.38611 | -102.84545 | 26584 ft | 422 kts | 281° |
| 2026-05-08 04:17 | 20.39351 | -102.87567 | 26244 ft | 420 kts | 281° |
| 2026-05-08 04:17 | 20.40058 | -102.90582 | 25912 ft | 418 kts | 280° |
| 2026-05-08 04:17 | 20.40757 | -102.93587 | 25593 ft | 417 kts | 280° |
| 2026-05-08 04:17 | 20.41463 | -102.96581 | 25287 ft | 416 kts | 281° |
| 2026-05-08 04:18 | 20.42181 | -102.99567 | 24994 ft | 414 kts | 281° |
| 2026-05-08 04:18 | 20.42908 | -103.02534 | 24703 ft | 413 kts | 281° |
| 2026-05-08 04:18 | 20.43638 | -103.05490 | 24421 ft | 411 kts | 281° |
| 2026-05-08 04:18 | 20.44367 | -103.08434 | 24148 ft | 410 kts | 281° |
| 2026-05-08 04:19 | 20.45096 | -103.11367 | 24040 ft | 409 kts | 282° |
| 2026-05-08 04:19 | 20.46122 | -103.14208 | 24093 ft | 414 kts | 295° |
| 2026-05-08 04:19 | 20.47719 | -103.16790 | 24119 ft | 419 kts | 307° |
| 2026-05-08 04:19 | 20.49805 | -103.18930 | 24145 ft | 424 kts | 320° |
| 2026-05-08 04:20 | 20.52381 | -103.20574 | 24158 ft | 428 kts | 334° |
| 2026-05-08 04:20 | 20.55116 | -103.21736 | 24163 ft | 429 kts | 336° |
| 2026-05-08 04:20 | 20.57897 | -103.22894 | 24163 ft | 429 kts | 336° |
| 2026-05-08 04:20 | 20.60684 | -103.24058 | 24148 ft | 429 kts | 336° |
| 2026-05-08 04:21 | 20.63468 | -103.25227 | 24131 ft | 429 kts | 336° |
| 2026-05-08 04:21 | 20.66249 | -103.26397 | 24112 ft | 429 kts | 336° |
| 2026-05-08 04:21 | 20.69029 | -103.27566 | 24091 ft | 429 kts | 336° |
| 2026-05-08 04:21 | 20.71803 | -103.28731 | 24068 ft | 429 kts | 336° |
| 2026-05-08 04:22 | 20.74582 | -103.29902 | 24040 ft | 430 kts | 336° |
| 2026-05-08 04:22 | 20.77372 | -103.31073 | 24017 ft | 430 kts | 336° |
| 2026-05-08 04:22 | 20.80155 | -103.32240 | 23994 ft | 430 kts | 336° |
| 2026-05-08 04:22 | 20.82938 | -103.33409 | 23968 ft | 430 kts | 336° |
| 2026-05-08 04:23 | 20.85722 | -103.34579 | 23945 ft | 430 kts | 336° |
| 2026-05-08 04:23 | 20.88509 | -103.35751 | 23925 ft | 430 kts | 336° |
| 2026-05-08 04:23 | 20.91297 | -103.36925 | 23930 ft | 430 kts | 336° |
| 2026-05-08 04:23 | 20.94083 | -103.38102 | 23930 ft | 430 kts | 336° |
| 2026-05-08 04:24 | 20.96827 | -103.39262 | 23937 ft | 430 kts | 336° |
| 2026-05-08 04:24 | 20.99609 | -103.40438 | 23934 ft | 430 kts | 336° |
| 2026-05-08 04:24 | 21.02391 | -103.41613 | 23942 ft | 429 kts | 336° |
| 2026-05-08 04:24 | 21.05171 | -103.42784 | 23942 ft | 430 kts | 336° |
| 2026-05-08 04:25 | 21.07957 | -103.43958 | 23948 ft | 430 kts | 335° |
| 2026-05-08 04:25 | 21.10735 | -103.45129 | 23945 ft | 430 kts | 336° |
| 2026-05-08 04:25 | 21.13514 | -103.46303 | 23947 ft | 429 kts | 335° |
| 2026-05-08 04:25 | 21.16335 | -103.47381 | 23947 ft | 438 kts | 345° |
| 2026-05-08 04:26 | 21.19395 | -103.47709 | 23939 ft | 443 kts | 2° |
| 2026-05-08 04:26 | 21.22372 | -103.47136 | 23494 ft | 430 kts | 20° |
| 2026-05-08 04:26 | 21.24984 | -103.45685 | 22577 ft | 420 kts | 38° |
| 2026-05-08 04:26 | 21.27052 | -103.43531 | 21626 ft | 410 kts | 55° |
| 2026-05-08 04:27 | 21.28468 | -103.40938 | 20720 ft | 399 kts | 71° |
| 2026-05-08 04:27 | 21.29198 | -103.38165 | 19850 ft | 387 kts | 85° |
| 2026-05-08 04:27 | 21.29265 | -103.35336 | 18991 ft | 375 kts | 100° |
| 2026-05-08 04:27 | 21.28684 | -103.32668 | 18322 ft | 359 kts | 114° |
| 2026-05-08 04:28 | 21.27596 | -103.30364 | 18062 ft | 339 kts | 127° |
| 2026-05-08 04:28 | 21.26114 | -103.28420 | 17882 ft | 335 kts | 138° |
| 2026-05-08 04:28 | 21.24299 | -103.26896 | 17685 ft | 330 kts | 151° |
| 2026-05-08 04:28 | 21.22228 | -103.25866 | 17693 ft | 329 kts | 163° |
| 2026-05-08 04:29 | 21.20000 | -103.25263 | 17520 ft | 331 kts | 168° |
| 2026-05-08 04:29 | 21.17728 | -103.24643 | 16586 ft | 343 kts | 161° |
| 2026-05-08 04:29 | 21.15577 | -103.23504 | 15943 ft | 347 kts | 147° |
| 2026-05-08 04:29 | 21.13739 | -103.21855 | 15669 ft | 341 kts | 134° |
| 2026-05-08 04:30 | 21.12348 | -103.19881 | 15513 ft | 327 kts | 122° |
| 2026-05-08 04:30 | 21.11215 | -103.17767 | 15366 ft | 327 kts | 122° |
| 2026-05-08 04:30 | 21.09945 | -103.15793 | 15222 ft | 324 kts | 133° |
| 2026-05-08 04:30 | 21.08359 | -103.14084 | 15078 ft | 323 kts | 137° |
| 2026-05-08 04:31 | 21.06747 | -103.12396 | 14943 ft | 324 kts | 137° |
| 2026-05-08 04:31 | 21.05146 | -103.10713 | 14794 ft | 323 kts | 136° |
| 2026-05-08 04:31 | 21.03549 | -103.09030 | 14769 ft | 322 kts | 136° |
| 2026-05-08 04:31 | 21.01949 | -103.07349 | 14775 ft | 322 kts | 136° |
| 2026-05-08 04:32 | 21.00348 | -103.05671 | 14776 ft | 322 kts | 136° |
| 2026-05-08 04:32 | 20.98743 | -103.03989 | 14764 ft | 322 kts | 136° |
| 2026-05-08 04:32 | 20.97145 | -103.02314 | 14776 ft | 322 kts | 136° |
| 2026-05-08 04:32 | 20.95546 | -103.00638 | 14762 ft | 322 kts | 136° |
| 2026-05-08 04:33 | 20.93943 | -102.98961 | 14772 ft | 321 kts | 136° |
| 2026-05-08 04:33 | 20.92347 | -102.97292 | 14763 ft | 322 kts | 136° |
| 2026-05-08 04:33 | 20.90749 | -102.95619 | 14274 ft | 330 kts | 136° |
| 2026-05-08 04:33 | 20.89087 | -102.93881 | 13638 ft | 336 kts | 136° |
| 2026-05-08 04:34 | 20.87420 | -102.92138 | 13168 ft | 328 kts | 136° |
| 2026-05-08 04:34 | 20.85837 | -102.90486 | 13022 ft | 314 kts | 136° |
| 2026-05-08 04:34 | 20.84271 | -102.88853 | 12885 ft | 314 kts | 136° |
| 2026-05-08 04:34 | 20.82712 | -102.87225 | 12751 ft | 313 kts | 136° |
| 2026-05-08 04:35 | 20.81148 | -102.85588 | 12755 ft | 314 kts | 136° |
| 2026-05-08 04:35 | 20.79586 | -102.83955 | 12759 ft | 314 kts | 136° |
| 2026-05-08 04:35 | 20.78026 | -102.82327 | 12758 ft | 313 kts | 136° |
| 2026-05-08 04:35 | 20.76993 | -102.81249 | 12756 ft | 313 kts | 136° |
| 2026-05-08 04:36 | 20.75435 | -102.79622 | 12759 ft | 313 kts | 136° |
| 2026-05-08 04:36 | 20.73903 | -102.78024 | 12747 ft | 301 kts | 136° |
| 2026-05-08 04:36 | 20.72443 | -102.76501 | 12747 ft | 286 kts | 136° |
| 2026-05-08 04:36 | 20.70996 | -102.75088 | 12753 ft | 281 kts | 143° |
| 2026-05-08 04:37 | 20.69435 | -102.73843 | 12748 ft | 280 kts | 143° |
| 2026-05-08 04:37 | 20.67750 | -102.72827 | 12747 ft | 279 kts | 162° |
| 2026-05-08 04:37 | 20.65844 | -102.72498 | 12748 ft | 279 kts | 175° |
| 2026-05-08 04:37 | 20.63902 | -102.72329 | 12751 ft | 280 kts | 175° |
| 2026-05-08 04:38 | 20.61958 | -102.72163 | 12746 ft | 280 kts | 175° |
| 2026-05-08 04:38 | 20.60013 | -102.71999 | 12741 ft | 280 kts | 175° |
| 2026-05-08 04:38 | 20.58073 | -102.71836 | 12743 ft | 280 kts | 175° |
| 2026-05-08 04:38 | 20.56128 | -102.71675 | 12743 ft | 280 kts | 175° |
| 2026-05-08 04:39 | 20.54189 | -102.71515 | 12587 ft | 278 kts | 175° |
| 2026-05-08 04:39 | 20.52262 | -102.71354 | 12253 ft | 277 kts | 175° |
| 2026-05-08 04:39 | 20.50340 | -102.71191 | 11911 ft | 277 kts | 175° |
| 2026-05-08 04:39 | 20.48422 | -102.71027 | 11568 ft | 276 kts | 176° |
| 2026-05-08 04:40 | 20.46506 | -102.70865 | 11234 ft | 275 kts | 177° |
| 2026-05-08 04:40 | 20.44644 | -102.71044 | 10920 ft | 272 kts | 199° |
| 2026-05-08 04:40 | 20.42997 | -102.71977 | 10591 ft | 268 kts | 223° |
| 2026-05-08 04:40 | 20.41851 | -102.73516 | 10271 ft | 265 kts | 245° |
| 2026-05-08 04:41 | 20.41374 | -102.75395 | 9953 ft | 263 kts | 266° |
| 2026-05-08 04:41 | 20.41266 | -102.77338 | 9624 ft | 263 kts | 266° |
| 2026-05-08 04:41 | 20.41159 | -102.79276 | 9330 ft | 261 kts | 266° |
| 2026-05-08 04:41 | 20.41047 | -102.81197 | 9108 ft | 256 kts | 266° |
| 2026-05-08 04:42 | 20.40937 | -102.83066 | 8924 ft | 249 kts | 266° |
| 2026-05-08 04:42 | 20.40828 | -102.84884 | 8738 ft | 247 kts | 266° |
| 2026-05-08 04:42 | 20.40716 | -102.86719 | 8733 ft | 249 kts | 267° |
| 2026-05-08 04:42 | 20.40603 | -102.88568 | 8735 ft | 250 kts | 267° |
| 2026-05-08 04:43 | 20.40493 | -102.90396 | 8735 ft | 250 kts | 266° |
| 2026-05-08 04:43 | 20.40384 | -102.92242 | 8734 ft | 251 kts | 266° |
| 2026-05-08 04:43 | 20.40274 | -102.94098 | 8733 ft | 250 kts | 266° |
| 2026-05-08 04:43 | 20.40162 | -102.95949 | 8748 ft | 250 kts | 266° |
| 2026-05-08 04:44 | 20.40049 | -102.97804 | 8767 ft | 251 kts | 266° |
| 2026-05-08 04:44 | 20.39937 | -102.99657 | 8781 ft | 250 kts | 266° |
| 2026-05-08 04:44 | 20.39913 | -103.01507 | 8799 ft | 250 kts | 279° |
| 2026-05-08 04:44 | 20.40450 | -103.03264 | 8743 ft | 250 kts | 294° |
| 2026-05-08 04:45 | 20.41166 | -103.04953 | 8663 ft | 250 kts | 293° |
| 2026-05-08 04:45 | 20.41874 | -103.06624 | 8569 ft | 244 kts | 293° |
| 2026-05-08 04:45 | 20.42551 | -103.08223 | 8602 ft | 228 kts | 294° |
| 2026-05-08 04:45 | 20.43185 | -103.09722 | 8605 ft | 217 kts | 293° |
| 2026-05-08 04:46 | 20.43799 | -103.11182 | 8534 ft | 215 kts | 293° |
| 2026-05-08 04:46 | 20.44408 | -103.12639 | 8115 ft | 215 kts | 293° |
| 2026-05-08 04:46 | 20.45012 | -103.14074 | 7725 ft | 209 kts | 293° |
| 2026-05-08 04:46 | 20.45589 | -103.15443 | 7454 ft | 195 kts | 293° |
| 2026-05-08 04:47 | 20.46132 | -103.16731 | 7244 ft | 188 kts | 294° |
| 2026-05-08 04:47 | 20.46654 | -103.17971 | 7043 ft | 184 kts | 293° |
| 2026-05-08 04:47 | 20.47162 | -103.19176 | 6884 ft | 174 kts | 293° |
| 2026-05-08 04:47 | 20.47652 | -103.20341 | 6680 ft | 171 kts | 293° |
| 2026-05-08 04:48 | 20.48134 | -103.21484 | 6506 ft | 167 kts | 294° |
| 2026-05-08 04:48 | 20.48614 | -103.22625 | 6329 ft | 169 kts | 294° |
| 2026-05-08 04:48 | 20.49095 | -103.23768 | 6197 ft | 169 kts | 292° |
| 2026-05-08 04:48 | 20.49575 | -103.24909 | 6049 ft | 168 kts | 292° |
| 2026-05-08 04:49 | 20.50060 | -103.26041 | 5877 ft | 161 kts | 294° |
| 2026-05-08 04:49 | 20.50529 | -103.27035 | 5635 ft | 142 kts | 291° |
| 2026-05-08 04:49 | 20.50879 | -103.27988 | 5394 ft | 135 kts | 289° |
| 2026-05-08 04:49 | 20.51251 | -103.28900 | 5152 ft | 134 kts | 292° |
| 2026-05-08 04:50 | 20.51627 | -103.29795 | 5029 ft | 132 kts | 291° |
| 2026-05-08 04:50 | 20.51976 | -103.30669 | 5020 ft | 118 kts | 292° |
| 2026-05-08 04:50 | 20.52277 | -103.31367 | 5020 ft | 88 kts | 295° |
| 2026-05-08 04:50 | 20.52472 | -103.31787 | 5018 ft | 46 kts | 295° |
| 2026-05-08 04:51 | 20.52567 | -103.31932 | 5019 ft | 16 kts | 355° |
| 2026-05-08 04:51 | 20.52652 | -103.31894 | 5019 ft | 8 kts | 30° |
| 2026-05-08 04:51 | 20.52659 | -103.31890 | 5020 ft | 0 kts | 30° |
| 2026-05-08 04:52 | 20.52661 | -103.31889 | 5020 ft | 2 kts | 30° |
| 2026-05-08 04:52 | 20.52683 | -103.31876 | 5015 ft | 5 kts | 30° |
| 2026-05-08 04:53 | 20.52694 | -103.31863 | 5019 ft | 3 kts | 54° |
| 2026-05-08 04:53 | 20.52696 | -103.31835 | 5020 ft | 5 kts | 107° |
| 2026-05-08 04:53 | 20.52681 | -103.31790 | 5019 ft | 9 kts | 108° |
| 2026-05-08 04:53 | 20.52655 | -103.31707 | 5017 ft | 15 kts | 108° |
| 2026-05-08 04:54 | 20.52619 | -103.31594 | 5019 ft | 18 kts | 107° |
| 2026-05-08 04:54 | 20.52572 | -103.31447 | 5019 ft | 23 kts | 110° |
| 2026-05-08 04:54 | 20.52513 | -103.31267 | 5017 ft | 28 kts | 109° |
| 2026-05-08 04:54 | 20.52447 | -103.31073 | 5016 ft | 14 kts | 109° |
| 2026-05-08 04:55 | 20.52432 | -103.30961 | 5019 ft | 17 kts | 79° |
| 2026-05-08 04:55 | 20.52466 | -103.30816 | 5014 ft | 23 kts | 69° |
| 2026-05-08 04:55 | 20.52518 | -103.30668 | 5013 ft | 12 kts | 68° |
| 2026-05-08 04:55 | 20.52533 | -103.30613 | 5013 ft | 9 kts | 85° |
| 2026-05-08 04:56 | 20.52500 | -103.30549 | 5014 ft | 11 kts | 160° |
| 2026-05-08 04:56 | 20.52449 | -103.30511 | 5016 ft | 8 kts | 104° |
| 2026-05-08 04:56 | 20.52456 | -103.30493 | 5014 ft | 1 kts | 43° |
| 2026-05-08 04:56 | 20.52472 | -103.30492 | 5014 ft | 5 kts | 5° |
| 2026-05-08 04:57 | 20.52491 | -103.30490 | 5014 ft | 1 kts | 354° |
| 2026-05-08 04:57 | 20.52492 | -103.30491 | 5014 ft | 0 kts | 351° |
| 2026-05-08 04:57 | 20.52488 | -103.30490 | 5014 ft | 1 kts | 351° |
| 2026-05-08 04:57 | 20.52480 | -103.30490 | 5013 ft | 0 kts | 324° |
| 2026-05-08 04:58 | 20.52479 | -103.30491 | 5013 ft | 2 kts | 311° |
| 2026-05-08 04:58 | 20.52499 | -103.30506 | 5012 ft | 4 kts | 340° |